This is the latest recevied weather packets stored in our database for station/object DW2488. If no packets are shown the sender has not sent any weather packets the latest 1 day(s).
| Time | Temp. | Humidity | Pressure | Rain* | Wind** | Luminosity | Snow |
|---|---|---|---|---|---|---|---|
| 1778021291 | 11.67° C | 79% | 1020.8 hPa | 0 mm | 1.34 m/s, 154° | 90 W/m² | - |
| 1778020389 | 10.56° C | 82% | 1020.8 hPa | 0 mm | 1.34 m/s, 134° | 62 W/m² | - |
| 1778019491 | 10° C | 82% | 1020.8 hPa | 0 mm | 1.79 m/s, 167° | 26 W/m² | - |
| 1778018591 | 9.44° C | 83% | 1020.9 hPa | 0 mm | 1.34 m/s, 156° | 25 W/m² | - |
| 1778017690 | 8.89° C | 84% | 1020.7 hPa | 0 mm | 1.79 m/s, 153° | 30 W/m² | - |
| 1778016791 | 8.33° C | 84% | 1020.7 hPa | 0 mm | 1.34 m/s, 0° | 19 W/m² | - |
| 1778015897 | 8.33° C | 84% | 1020.7 hPa | 0 mm | 1.34 m/s, 0° | 18 W/m² | - |
| 1778014991 | 7.78° C | 84% | 1020.6 hPa | 0 mm | 0.89 m/s, 0° | 12 W/m² | - |
| 1778014098 | 7.78° C | 84% | 1020.6 hPa | 0 mm | 1.34 m/s, 0° | 9 W/m² | - |
| 1778013192 | 7.78° C | 83% | 1020.5 hPa | 0 mm | 1.34 m/s, 0° | 0 W/m² | - |
| 1778012298 | 7.78° C | 83% | 1020.5 hPa | 0 mm | 1.34 m/s, 0° | 0 W/m² | - |
| 1778011392 | 7.78° C | 83% | 1020.4 hPa | 0 mm | 1.34 m/s, 0° | 0 W/m² | - |
| 1778010491 | 7.78° C | 83% | 1020.3 hPa | 0 mm | 0.89 m/s, 0° | 0 W/m² | - |
| 1778009592 | 8.33° C | 83% | 1020.4 hPa | 0 mm | 1.34 m/s, 0° | 0 W/m² | - |
| 1778008697 | 8.33° C | 83% | 1020.3 hPa | 0 mm | 1.34 m/s, 0° | 0 W/m² | - |
| 1778007790 | 8.33° C | 83% | 1020.4 hPa | 0 mm | 0.89 m/s, 0° | 0 W/m² | - |
| 1778006891 | 8.33° C | 83% | 1020.2 hPa | 0 mm | 1.34 m/s, 0° | 0 W/m² | - |
| 1778005996 | 8.33° C | 82% | 1020.2 hPa | 0 mm | 0.89 m/s, 0° | 0 W/m² | - |
| 1778005092 | 8.33° C | 82% | 1020.2 hPa | 0 mm | 0.89 m/s, 0° | 0 W/m² | - |
| 1778004197 | 8.33° C | 82% | 1020.2 hPa | 0 mm | 1.34 m/s, 0° | 0 W/m² | - |
| 1778003292 | 8.33° C | 81% | 1020.1 hPa | 0 mm | 1.34 m/s, 0° | 0 W/m² | - |
| 1778002390 | 8.89° C | 81% | 1020.2 hPa | 0 mm | 1.34 m/s, 0° | 0 W/m² | - |
| 1778001490 | 8.89° C | 81% | 1020.5 hPa | 0 mm | 1.34 m/s, 0° | 0 W/m² | - |
| 1778000610 | 8.89° C | 81% | 1020.6 hPa | 0 mm | 0.89 m/s, 0° | 0 W/m² | - |
| 1777999691 | 8.89° C | 81% | 1020.7 hPa | 0 mm | 0.89 m/s, 0° | 0 W/m² | - |
* Rain latest hour (hover to see other rain measurements)
** Current wind speed in m/s (hover to see current wind gust speed)